createdAt,value
2019-05-01T00:00:25.737Z,17.62
2019-05-01T00:03:12.303Z,17.55
2019-05-01T00:05:43.240Z,18.00
2019-05-01T00:08:12.271Z,16.67
2019-05-01T00:10:41.378Z,20.60
2019-05-01T00:13:10.510Z,17.82
2019-05-01T00:15:40.410Z,17.10
2019-05-01T00:18:09.439Z,16.55
2019-05-01T00:20:38.267Z,19.00
2019-05-01T00:23:07.404Z,17.02
2019-05-01T00:25:36.283Z,18.37
2019-05-01T00:28:05.779Z,18.37
2019-05-01T00:30:35.921Z,17.92
2019-05-01T00:33:04.843Z,17.48
2019-05-01T00:35:33.633Z,18.77
2019-05-01T00:38:02.407Z,23.45
2019-05-01T00:40:31.201Z,21.87
2019-05-01T00:43:00.296Z,20.00
2019-05-01T00:45:29.335Z,19.55
2019-05-01T00:47:58.113Z,21.42
2019-05-01T00:50:26.847Z,21.12
2019-05-01T00:52:55.699Z,20.50
2019-05-01T00:55:45.553Z,19.98
2019-05-01T00:58:24.412Z,19.37
2019-05-01T01:01:17.190Z,20.10
2019-05-01T01:03:45.939Z,19.67
2019-05-01T01:06:14.729Z,19.35
2019-05-01T01:08:43.735Z,19.52
2019-05-01T01:11:12.584Z,19.00
2019-05-01T01:13:41.606Z,22.52
2019-05-01T01:16:10.385Z,21.75
2019-05-01T01:18:39.454Z,21.90
2019-05-01T01:21:08.278Z,20.70
2019-05-01T01:23:37.214Z,17.60
2019-05-01T01:26:06.202Z,17.30
2019-05-01T01:28:35.054Z,17.52
2019-05-01T01:31:03.884Z,19.48
2019-05-01T01:33:32.784Z,17.98
2019-05-01T01:36:01.788Z,19.07
2019-05-01T01:38:31.063Z,18.25
2019-05-01T01:41:00.476Z,17.85
2019-05-01T01:43:48.982Z,18.98
2019-05-01T01:46:19.379Z,18.40
2019-05-01T01:48:48.267Z,19.82
2019-05-01T01:51:17.183Z,18.75
2019-05-01T01:53:46.004Z,18.98
2019-05-01T01:56:15.320Z,18.73
2019-05-01T01:58:44.321Z,19.65
2019-05-01T02:01:39.328Z,19.87
2019-05-01T02:04:18.414Z,21.62
2019-05-01T02:06:48.332Z,20.35
2019-05-01T02:09:17.217Z,21.35
2019-05-01T02:11:47.139Z,20.75
2019-05-01T02:14:16.095Z,20.82
2019-05-01T02:16:45.002Z,22.45
2019-05-01T02:19:13.818Z,19.75
2019-05-01T02:21:42.616Z,21.90
2019-05-01T02:24:11.383Z,22.60
2019-05-01T02:26:44.547Z,23.55
2019-05-01T02:29:22.418Z,23.40
2019-05-01T02:31:52.705Z,25.65
2019-05-01T02:34:23.527Z,24.90
2019-05-01T02:36:54.253Z,23.10
2019-05-01T02:39:24.439Z,24.87
2019-05-01T02:41:54.746Z,21.62
2019-05-01T02:44:29.410Z,22.73
2019-05-01T02:47:01.525Z,22.48
2019-05-01T02:49:40.248Z,22.30
2019-05-01T02:52:12.268Z,23.52
2019-05-01T02:54:42.793Z,23.42
2019-05-01T02:57:14.592Z,22.77
2019-05-01T02:59:46.600Z,23.42
2019-05-01T03:02:16.613Z,20.08
2019-05-01T03:04:45.933Z,19.95
2019-05-01T03:07:15.258Z,23.00
2019-05-01T03:09:44.607Z,22.02
2019-05-01T03:12:15.281Z,22.82
2019-05-01T03:14:46.668Z,24.12
2019-05-01T03:17:38.702Z,21.57
2019-05-01T03:20:30.085Z,25.05
2019-05-01T03:23:18.721Z,23.05
2019-05-01T03:25:48.079Z,21.00
2019-05-01T03:28:17.480Z,24.98
2019-05-01T03:30:46.420Z,24.55
2019-05-01T03:33:15.588Z,24.07
2019-05-01T03:35:44.799Z,26.02
2019-05-01T03:38:13.960Z,22.20
2019-05-01T03:40:43.124Z,21.68
2019-05-01T03:43:12.981Z,22.00
2019-05-01T03:45:42.896Z,23.38
2019-05-01T03:48:11.840Z,25.02
2019-05-01T03:50:40.773Z,27.40
2019-05-01T03:53:10.092Z,27.80
2019-05-01T03:55:39.249Z,29.98
2019-05-01T03:58:08.554Z,29.82
2019-05-01T04:00:51.802Z,28.87
2019-05-01T04:03:33.428Z,25.37
2019-05-01T04:06:02.339Z,25.20
2019-05-01T04:08:31.684Z,23.52
2019-05-01T04:11:00.423Z,28.80
2019-05-01T04:13:29.451Z,34.48
2019-05-01T04:15:58.473Z,30.05
2019-05-01T04:18:28.433Z,29.77
2019-05-01T04:20:58.180Z,32.78
2019-05-01T04:23:27.317Z,39.23
2019-05-01T04:25:56.408Z,34.85
2019-05-01T04:28:31.891Z,33.98
2019-05-01T04:31:08.229Z,37.65
2019-05-01T04:33:38.528Z,37.98
2019-05-01T04:36:13.381Z,33.95
2019-05-01T04:38:42.247Z,34.98
2019-05-01T04:41:11.492Z,47.17
2019-05-01T04:43:40.422Z,52.50
2019-05-01T04:46:09.297Z,51.63
2019-05-01T04:48:38.123Z,60.30
2019-05-01T04:51:07.272Z,52.98
2019-05-01T04:53:36.444Z,58.10
2019-05-01T04:56:05.623Z,55.55
2019-05-01T04:58:34.707Z,60.67
2019-05-01T05:01:03.907Z,50.43
2019-05-01T05:03:33.100Z,58.40
2019-05-01T05:06:02.040Z,50.50
2019-05-01T05:08:31.446Z,49.25
2019-05-01T05:11:02.254Z,54.85
2019-05-01T05:13:40.085Z,59.75
2019-05-01T05:16:43.907Z,85.70
2019-05-01T05:19:13.243Z,77.55
2019-05-01T05:21:42.178Z,79.12
2019-05-01T05:24:11.402Z,90.15
2019-05-01T05:26:41.811Z,86.97
2019-05-01T05:29:11.467Z,81.45
2019-05-01T05:31:41.981Z,94.75
2019-05-01T05:34:13.664Z,108.87
2019-05-01T05:36:44.179Z,101.47
2019-05-01T05:39:22.998Z,90.07
2019-05-01T05:41:52.939Z,109.22
2019-05-01T05:44:22.547Z,92.88
2019-05-01T05:46:51.404Z,92.02
2019-05-01T05:49:20.915Z,88.85
2019-05-01T05:52:10.010Z,100.40
2019-05-01T05:54:50.613Z,82.88
2019-05-01T05:57:26.622Z,90.67
2019-05-01T06:00:01.848Z,90.97
2019-05-01T06:02:51.808Z,105.63
2019-05-01T06:05:31.262Z,103.38
2019-05-01T06:08:30.679Z,86.90
2019-05-01T06:11:15.432Z,94.52
2019-05-01T06:14:05.365Z,78.67
2019-05-01T06:17:09.638Z,82.80
2019-05-01T06:19:45.861Z,79.42
2019-05-01T06:22:21.684Z,78.70
2019-05-01T06:24:54.668Z,81.53
2019-05-01T06:27:23.594Z,86.92
2019-05-01T06:29:52.971Z,95.35
2019-05-01T06:32:21.843Z,91.70
2019-05-01T06:34:50.725Z,82.35
2019-05-01T06:37:20.822Z,102.95
2019-05-01T06:39:50.374Z,101.10
2019-05-01T06:42:20.342Z,96.78
2019-05-01T06:45:01.387Z,92.57
2019-05-01T06:47:48.178Z,85.70
2019-05-01T06:50:41.590Z,92.55
2019-05-01T06:53:10.630Z,87.82
2019-05-01T06:55:39.977Z,88.35
2019-05-01T06:58:08.832Z,86.87
2019-05-01T07:00:43.172Z,81.47
2019-05-01T07:03:11.689Z,85.83
2019-05-01T07:05:40.902Z,76.07
2019-05-01T07:08:09.938Z,77.78
2019-05-01T07:10:43.973Z,73.78
2019-05-01T07:13:09.623Z,68.35
2019-05-01T07:15:38.769Z,66.67
2019-05-01T07:18:07.864Z,60.45
2019-05-01T07:20:53.988Z,68.05
2019-05-01T07:23:23.814Z,59.13
2019-05-01T07:25:52.691Z,64.00
2019-05-01T07:28:21.912Z,61.88
2019-05-01T07:31:12.504Z,62.80
2019-05-01T07:33:41.815Z,62.03
2019-05-01T07:36:15.427Z,56.63
2019-05-01T07:38:42.667Z,56.45
2019-05-01T07:41:12.520Z,53.98
2019-05-01T07:43:48.833Z,57.67
2019-05-01T07:46:26.852Z,56.35
2019-05-01T07:48:56.407Z,54.53
2019-05-01T07:51:29.026Z,53.35
2019-05-01T07:54:04.084Z,52.83
2019-05-01T07:56:32.386Z,53.52
2019-05-01T07:59:01.596Z,54.38
2019-05-01T08:01:44.538Z,54.75
2019-05-01T08:04:18.013Z,55.85
2019-05-01T08:06:44.507Z,54.18
2019-05-01T08:09:15.141Z,55.48
2019-05-01T08:11:45.488Z,57.80
2019-05-01T08:14:16.691Z,54.42
2019-05-01T08:16:45.374Z,53.85
2019-05-01T08:19:22.718Z,56.10
2019-05-01T08:22:01.629Z,53.45
2019-05-01T08:24:29.859Z,60.35
2019-05-01T08:26:58.646Z,55.30
2019-05-01T08:29:45.366Z,54.98
2019-05-01T08:32:42.275Z,52.43
2019-05-01T08:35:13.563Z,57.95
2019-05-01T08:37:42.348Z,53.40
2019-05-01T08:40:15.831Z,57.08
2019-05-01T08:42:44.188Z,54.50
2019-05-01T08:45:30.767Z,53.87
2019-05-01T08:48:35.890Z,46.55
2019-05-01T08:51:01.903Z,44.95
2019-05-01T08:53:31.058Z,40.57
2019-05-01T08:56:00.139Z,43.57
2019-05-01T08:58:29.141Z,42.07
2019-05-01T09:00:58.585Z,41.53
2019-05-01T09:03:27.606Z,40.45
2019-05-01T09:05:57.710Z,41.68
2019-05-01T09:08:32.078Z,37.63
2019-05-01T09:11:00.133Z,40.85
2019-05-01T09:13:29.208Z,41.42
2019-05-01T09:15:58.081Z,40.20
2019-05-01T09:18:27.280Z,42.35
2019-05-01T09:20:57.992Z,42.45
2019-05-01T09:23:27.004Z,41.85
2019-05-01T09:26:14.800Z,38.58
2019-05-01T09:28:41.857Z,36.63
2019-05-01T09:31:12.494Z,38.42
2019-05-01T09:33:41.381Z,40.75
2019-05-01T09:36:10.195Z,40.85
2019-05-01T09:38:39.011Z,40.88
2019-05-01T09:41:08.104Z,45.75
2019-05-01T09:43:37.208Z,45.58
2019-05-01T09:46:06.086Z,49.95
2019-05-01T09:48:34.920Z,42.65
2019-05-01T09:51:42.619Z,46.05
2019-05-01T09:54:17.406Z,44.65
2019-05-01T09:56:46.469Z,46.23
2019-05-01T09:59:17.493Z,45.50
2019-05-01T10:01:45.968Z,42.55
2019-05-01T10:04:14.787Z,41.50
2019-05-01T10:06:47.537Z,42.48
2019-05-01T10:09:16.881Z,41.23
2019-05-01T10:11:44.704Z,42.20
2019-05-01T10:14:13.836Z,38.92
2019-05-01T10:16:42.909Z,39.20
2019-05-01T10:19:11.735Z,44.10
2019-05-01T10:21:40.763Z,42.73
2019-05-01T10:24:10.912Z,40.08
2019-05-01T10:26:47.273Z,38.13
2019-05-01T10:32:23.166Z,40.70
2019-05-01T10:34:59.343Z,40.00
2019-05-01T10:37:32.926Z,37.20
2019-05-01T10:39:59.224Z,38.07
2019-05-01T10:42:29.291Z,37.50
2019-05-01T10:44:59.162Z,37.87
2019-05-01T10:47:28.062Z,41.30
2019-05-01T10:49:56.918Z,39.23
2019-05-01T10:52:25.758Z,38.33
2019-05-01T10:54:54.558Z,38.50
2019-05-01T10:57:23.318Z,37.90
2019-05-01T10:59:52.147Z,35.37
2019-05-01T11:02:20.907Z,33.83
2019-05-01T11:04:49.689Z,33.37
2019-05-01T11:07:18.545Z,32.43
2019-05-01T11:09:48.468Z,36.47
2019-05-01T11:12:17.308Z,34.40
2019-05-01T11:14:46.147Z,34.70
2019-05-01T11:17:15.406Z,33.00
2019-05-01T11:19:44.278Z,33.27
2019-05-01T11:22:13.034Z,31.50
2019-05-01T11:24:41.803Z,27.70
2019-05-01T11:27:10.651Z,28.43
2019-05-01T11:29:39.487Z,26.37
2019-05-01T11:32:24.042Z,24.83
2019-05-01T11:34:58.995Z,26.97
2019-05-01T11:38:04.184Z,26.87
2019-05-01T11:40:36.333Z,25.80
2019-05-01T11:43:06.483Z,27.53
2019-05-01T11:45:37.044Z,29.07
2019-05-01T11:48:06.422Z,31.20
2019-05-01T11:50:38.244Z,27.17
2019-05-01T11:53:07.058Z,28.63
2019-05-01T11:55:35.851Z,31.23
2019-05-01T11:58:07.892Z,29.07
2019-05-01T12:00:38.023Z,27.00
2019-05-01T12:03:06.875Z,21.10
2019-05-01T12:05:39.909Z,20.67
2019-05-01T12:08:08.783Z,25.03
2019-05-01T12:10:38.164Z,29.47
2019-05-01T12:13:08.997Z,29.10
2019-05-01T12:15:37.897Z,29.23
2019-05-01T12:18:07.005Z,30.20
2019-05-01T12:20:35.865Z,26.97
2019-05-01T12:23:04.820Z,27.00
2019-05-01T12:25:33.933Z,27.30
2019-05-01T12:28:02.754Z,25.80
2019-05-01T12:30:35.132Z,27.43
2019-05-01T12:33:05.089Z,27.83
2019-05-01T12:35:36.670Z,26.87
2019-05-01T12:38:05.803Z,23.10
2019-05-01T12:40:34.573Z,22.23
2019-05-01T12:43:03.620Z,22.00
2019-05-01T12:45:33.852Z,23.97
2019-05-01T12:48:06.814Z,22.57
2019-05-01T12:50:35.566Z,23.80
2019-05-01T12:53:27.280Z,24.80
2019-05-01T12:56:15.963Z,31.10
2019-05-01T12:58:49.594Z,33.40
2019-05-01T13:01:21.282Z,35.03
2019-05-01T13:03:52.335Z,31.90
2019-05-01T13:06:21.417Z,34.73
2019-05-01T13:08:50.168Z,33.17
2019-05-01T13:11:19.031Z,37.43
2019-05-01T13:13:47.785Z,34.30
2019-05-01T13:16:16.995Z,33.23
2019-05-01T13:18:45.898Z,31.50
2019-05-01T13:21:16.332Z,30.70
2019-05-01T13:23:46.911Z,32.30
2019-05-01T13:26:25.873Z,34.23
2019-05-01T13:29:02.243Z,28.17
2019-05-01T13:31:44.452Z,28.53
2019-05-01T13:34:13.216Z,27.67
2019-05-01T13:36:42.018Z,29.57
2019-05-01T13:39:15.020Z,30.77
2019-05-01T13:41:43.943Z,28.77
2019-05-01T13:44:12.784Z,24.73
2019-05-01T13:46:41.543Z,25.30
2019-05-01T13:49:10.339Z,28.77
2019-05-01T13:51:39.113Z,30.43
2019-05-01T13:54:08.827Z,27.10
2019-05-01T13:56:37.952Z,24.03
2019-05-01T13:59:09.952Z,23.00
2019-05-01T14:01:38.720Z,22.40
2019-05-01T14:04:08.688Z,21.23
2019-05-01T14:06:39.916Z,19.50
2019-05-01T14:09:11.873Z,21.50
2019-05-01T14:11:41.144Z,20.70
2019-05-01T14:14:09.947Z,21.47
2019-05-01T14:16:39.420Z,20.83
2019-05-01T14:19:08.195Z,20.90
2019-05-01T14:21:42.736Z,21.60
2019-05-01T14:24:29.872Z,19.60
2019-05-01T14:26:58.745Z,16.90
2019-05-01T14:29:28.031Z,15.50
2019-05-01T14:31:57.025Z,16.00
2019-05-01T14:34:25.959Z,16.77
2019-05-01T14:36:54.856Z,19.20
2019-05-01T14:39:24.150Z,17.87
2019-05-01T14:41:52.976Z,18.97
2019-05-01T14:44:21.810Z,21.93
2019-05-01T14:46:50.939Z,19.37
2019-05-01T14:49:19.968Z,19.97
2019-05-01T14:51:48.951Z,23.63
2019-05-01T14:54:17.786Z,17.60
2019-05-01T14:56:46.643Z,20.37
2019-05-01T14:59:15.850Z,19.97
2019-05-01T15:01:47.079Z,21.07
2019-05-01T15:04:15.062Z,23.57
2019-05-01T15:06:43.891Z,21.60
2019-05-01T15:09:12.836Z,20.23
2019-05-01T15:11:43.287Z,19.40
2019-05-01T15:14:24.747Z,21.83
2019-05-01T15:17:07.863Z,21.57
2019-05-01T15:19:42.054Z,24.07
2019-05-01T15:22:11.044Z,22.47
2019-05-01T15:24:39.831Z,24.67
2019-05-01T15:27:08.656Z,20.90
2019-05-01T15:29:37.465Z,21.37
2019-05-01T15:32:06.683Z,22.20
2019-05-01T15:34:35.626Z,23.33
2019-05-01T15:37:05.069Z,21.47
2019-05-01T15:39:45.510Z,21.93
2019-05-01T15:42:24.158Z,22.90
2019-05-01T15:44:53.036Z,18.13
2019-05-01T15:47:22.272Z,21.57
2019-05-01T15:49:52.159Z,21.37
2019-05-01T15:52:23.995Z,18.90
2019-05-01T15:54:53.215Z,19.23
2019-05-01T15:57:22.196Z,19.40
2019-05-01T15:59:51.034Z,17.30
2019-05-01T16:02:20.011Z,18.40
2019-05-01T16:04:49.167Z,20.97
2019-05-01T16:07:17.938Z,17.23
2019-05-01T16:09:47.039Z,18.17
2019-05-01T16:12:39.629Z,21.93
2019-05-01T16:15:14.151Z,20.80
2019-05-01T16:17:43.248Z,17.10
2019-05-01T16:20:12.240Z,19.90
2019-05-01T16:22:41.033Z,19.23
2019-05-01T16:25:09.945Z,19.40
2019-05-01T16:27:38.712Z,19.13
2019-05-01T16:30:08.832Z,18.65
2019-05-01T16:32:37.687Z,20.00
2019-05-01T16:35:06.582Z,19.30
2019-05-01T16:37:35.512Z,19.97
2019-05-01T16:40:42.198Z,20.57
2019-05-01T16:43:12.456Z,19.73
2019-05-01T16:45:41.622Z,21.40
2019-05-01T16:48:10.538Z,19.57
2019-05-01T16:50:39.367Z,17.60
2019-05-01T16:53:08.295Z,20.03
2019-05-01T16:55:37.389Z,23.85
2019-05-01T16:58:07.816Z,19.23
2019-05-01T17:01:03.854Z,17.73
2019-05-01T17:03:43.139Z,20.57
2019-05-01T17:06:15.936Z,19.03
2019-05-01T17:09:03.943Z,17.95
2019-05-01T17:11:33.363Z,16.40
2019-05-01T17:14:02.738Z,17.95
2019-05-01T17:16:32.068Z,15.17
2019-05-01T17:19:00.938Z,16.77
2019-05-01T17:21:29.830Z,16.95
2019-05-01T17:23:58.759Z,18.12
2019-05-01T17:26:27.575Z,18.17
2019-05-01T17:28:56.471Z,17.43
2019-05-01T17:31:27.064Z,15.90
2019-05-01T17:33:56.876Z,20.30
2019-05-01T17:36:25.719Z,18.00
2019-05-01T17:38:54.818Z,18.45
2019-05-01T17:41:22.615Z,18.12
2019-05-01T17:43:52.480Z,18.48
2019-05-01T17:46:47.024Z,16.57
2019-05-01T17:49:33.680Z,16.57
2019-05-01T17:52:22.030Z,17.30
2019-05-01T17:55:10.762Z,16.82
2019-05-01T17:57:40.188Z,15.48
2019-05-01T18:00:27.019Z,16.65
2019-05-01T18:03:03.246Z,17.30
2019-05-01T18:05:50.068Z,15.80
2019-05-01T18:08:19.150Z,17.32
2019-05-01T18:10:48.368Z,16.27
2019-05-01T18:13:17.393Z,17.00
2019-05-01T18:15:46.436Z,20.05
2019-05-01T18:18:17.758Z,16.40
2019-05-01T18:20:46.792Z,16.10
2019-05-01T18:23:33.629Z,16.50
2019-05-01T18:26:13.719Z,16.75
2019-05-01T18:28:53.376Z,16.02
2019-05-01T18:31:27.971Z,16.93
2019-05-01T18:33:56.978Z,15.48
2019-05-01T18:36:32.747Z,14.80
2019-05-01T18:39:25.810Z,14.47
2019-05-01T18:41:58.194Z,15.35
2019-05-01T18:44:27.024Z,14.78
2019-05-01T18:46:56.257Z,16.20
2019-05-01T18:49:25.310Z,16.80
2019-05-01T18:51:54.416Z,15.80
2019-05-01T18:54:23.251Z,14.83
2019-05-01T18:56:54.674Z,14.98
2019-05-01T18:59:23.255Z,15.53
2019-05-01T19:01:52.314Z,15.58
2019-05-01T19:04:23.459Z,16.73
2019-05-01T19:06:52.191Z,15.65
2019-05-01T19:09:29.793Z,15.32
2019-05-01T19:11:51.915Z,15.08
2019-05-01T19:14:23.583Z,14.90
2019-05-01T19:16:51.948Z,15.85
2019-05-01T19:19:23.301Z,14.28
2019-05-01T19:21:52.816Z,17.50
2019-05-01T19:24:22.196Z,15.18
2019-05-01T19:26:51.256Z,17.73
2019-05-01T19:29:26.845Z,14.75
2019-05-01T19:31:53.081Z,16.62
2019-05-01T19:34:22.051Z,15.15
2019-05-01T19:36:51.681Z,18.50
2019-05-01T19:39:20.940Z,18.15
2019-05-01T19:41:51.387Z,17.37
2019-05-01T19:44:20.475Z,16.73
2019-05-01T19:46:49.645Z,17.35
2019-05-01T19:49:18.565Z,19.40
2019-05-01T19:51:47.453Z,16.75
2019-05-01T19:54:16.708Z,18.02
2019-05-01T19:56:46.307Z,18.73
2019-05-01T19:59:15.261Z,18.70
2019-05-01T20:01:49.225Z,18.27
2019-05-01T20:04:16.727Z,18.52
2019-05-01T20:06:45.630Z,17.80
2019-05-01T20:09:14.970Z,19.23
2019-05-01T20:11:43.848Z,19.20
2019-05-01T20:14:12.733Z,19.73
2019-05-01T20:16:41.739Z,18.75
2019-05-01T20:19:10.896Z,19.45
2019-05-01T20:21:41.755Z,19.02
2019-05-01T20:24:19.316Z,20.65
2019-05-01T20:26:48.694Z,19.42
2019-05-01T20:29:17.894Z,19.20
2019-05-01T20:31:50.973Z,21.00
2019-05-01T20:34:18.783Z,20.92
2019-05-01T20:36:47.840Z,20.50
2019-05-01T20:39:16.744Z,19.17
2019-05-01T20:41:45.668Z,22.65
2019-05-01T20:44:23.261Z,21.52
2019-05-01T20:46:45.144Z,20.30
2019-05-01T20:49:14.004Z,18.45
2019-05-01T20:51:42.816Z,21.33
2019-05-01T20:54:11.583Z,22.10
2019-05-01T20:56:46.332Z,21.68
2019-05-01T20:59:15.283Z,21.60
2019-05-01T21:01:44.158Z,20.85
2019-05-01T21:04:38.152Z,21.65
2019-05-01T21:07:15.619Z,22.90
2019-05-01T21:09:47.657Z,21.15
2019-05-01T21:12:16.660Z,22.62
2019-05-01T21:14:49.729Z,21.12
2019-05-01T21:17:16.415Z,21.97
2019-05-01T21:19:45.637Z,21.68
2019-05-01T21:22:15.580Z,24.23
2019-05-01T21:24:44.576Z,22.60
2019-05-01T21:27:13.531Z,22.35
2019-05-01T21:29:44.533Z,25.43
2019-05-01T21:32:13.806Z,22.02
2019-05-01T21:34:44.583Z,22.40
2019-05-01T21:37:19.621Z,21.95
2019-05-01T21:39:49.385Z,23.57
2019-05-01T21:42:18.395Z,20.72
2019-05-01T21:44:47.949Z,22.32
2019-05-01T21:47:16.864Z,22.17
2019-05-01T21:49:45.871Z,21.05
2019-05-01T21:52:17.983Z,21.50
2019-05-01T21:54:45.562Z,23.62
2019-05-01T21:57:17.373Z,22.60
2019-05-01T21:59:48.079Z,23.27
2019-05-01T22:02:15.731Z,22.37
2019-05-01T22:04:44.811Z,23.77
2019-05-01T22:07:13.914Z,24.57
2019-05-01T22:09:45.723Z,25.35
2019-05-01T22:12:14.466Z,25.75
2019-05-01T22:14:49.366Z,23.20
2019-05-01T22:17:27.299Z,23.92
2019-05-01T22:19:55.144Z,27.32
2019-05-01T22:22:45.928Z,25.30
2019-05-01T22:25:21.945Z,25.43
2019-05-01T22:28:00.087Z,24.67
2019-05-01T22:30:33.880Z,24.70
2019-05-01T22:33:02.863Z,25.40
2019-05-01T22:35:37.514Z,26.20
2019-05-01T22:38:07.799Z,24.80
2019-05-01T22:41:06.190Z,27.48
2019-05-01T22:43:27.256Z,25.37
2019-05-01T22:46:00.862Z,24.35
2019-05-01T22:48:26.979Z,24.70
2019-05-01T22:50:59.004Z,26.12
2019-05-01T22:53:27.888Z,26.70
2019-05-01T22:55:57.178Z,24.12
2019-05-01T22:58:27.406Z,25.70
2019-05-01T23:00:57.910Z,25.52
2019-05-01T23:03:43.815Z,25.40
2019-05-01T23:06:12.652Z,25.77
2019-05-01T23:08:41.803Z,29.30
2019-05-01T23:11:19.733Z,26.80
2019-05-01T23:13:42.170Z,29.75
2019-05-01T23:16:11.395Z,27.90
2019-05-01T23:18:40.242Z,25.52
2019-05-01T23:21:09.926Z,25.55
2019-05-01T23:23:39.767Z,25.50
2019-05-01T23:26:11.672Z,31.00
2019-05-01T23:28:39.853Z,28.47
2019-05-01T23:31:09.743Z,27.10
2019-05-01T23:33:38.608Z,27.10
2019-05-01T23:36:07.449Z,26.17
2019-05-01T23:38:36.264Z,26.20
2019-05-01T23:41:05.132Z,24.47
2019-05-01T23:43:33.892Z,25.43
2019-05-01T23:46:02.649Z,26.27
2019-05-01T23:48:31.695Z,27.40
2019-05-01T23:51:00.548Z,27.05
2019-05-01T23:53:29.401Z,26.35
2019-05-01T23:56:00.076Z,28.35
2019-05-01T23:58:28.907Z,29.42
